sensor_id;sensor_type;location;lat;lon;timestamp;pressure;altitude;pressure_sealevel;temperature;humidity
75447;BME280;64024;55.820;37.574;2024-02-23T00:00:49;98972.16;;;17.65;40.01
75447;BME280;64024;55.820;37.574;2024-02-23T00:03:15;98968.41;;;17.66;40.12
75447;BME280;64024;55.820;37.574;2024-02-23T00:05:40;98978.09;;;17.67;40.03
75447;BME280;64024;55.820;37.574;2024-02-23T00:08:07;98976.47;;;17.66;39.96
75447;BME280;64024;55.820;37.574;2024-02-23T00:10:34;98968.69;;;17.64;39.89
75447;BME280;64024;55.820;37.574;2024-02-23T00:13:00;98974.31;;;17.63;40.03
75447;BME280;64024;55.820;37.574;2024-02-23T00:15:26;98978.06;;;17.62;39.71
75447;BME280;64024;55.820;37.574;2024-02-23T00:17:52;98973.22;;;17.59;39.87
75447;BME280;64024;55.820;37.574;2024-02-23T00:20:18;98979.13;;;17.56;39.71
75447;BME280;64024;55.820;37.574;2024-02-23T00:22:43;98971.56;;;17.53;39.83
75447;BME280;64024;55.820;37.574;2024-02-23T00:25:09;98973.97;;;17.49;39.70
75447;BME280;64024;55.820;37.574;2024-02-23T00:27:34;98969.13;;;17.46;39.77
75447;BME280;64024;55.820;37.574;2024-02-23T00:30:00;98970.72;;;17.42;40.13
75447;BME280;64024;55.820;37.574;2024-02-23T00:32:26;98984.66;;;17.39;39.92
75447;BME280;64024;55.820;37.574;2024-02-23T00:34:51;98977.38;;;17.34;39.73
75447;BME280;64024;55.820;37.574;2024-02-23T00:37:17;98974.38;;;17.31;39.83
75447;BME280;64024;55.820;37.574;2024-02-23T00:39:43;98974.91;;;17.28;39.77
75447;BME280;64024;55.820;37.574;2024-02-23T00:42:08;98968.41;;;17.24;39.88
75447;BME280;64024;55.820;37.574;2024-02-23T00:44:34;98978.31;;;17.18;39.88
75447;BME280;64024;55.820;37.574;2024-02-23T00:47:00;98982.31;;;17.15;39.87
75447;BME280;64024;55.820;37.574;2024-02-23T00:49:27;98984.72;;;17.12;40.05
75447;BME280;64024;55.820;37.574;2024-02-23T00:51:54;98997.84;;;17.08;40.02
75447;BME280;64024;55.820;37.574;2024-02-23T00:54:20;98994.03;;;17.04;40.17
75447;BME280;64024;55.820;37.574;2024-02-23T00:56:46;98995.63;;;17.00;40.08
75447;BME280;64024;55.820;37.574;2024-02-23T00:59:11;98994.53;;;16.96;40.01
75447;BME280;64024;55.820;37.574;2024-02-23T01:01:37;98987.78;;;16.94;40.10
75447;BME280;64024;55.820;37.574;2024-02-23T01:04:03;98996.63;;;16.89;40.05
75447;BME280;64024;55.820;37.574;2024-02-23T01:06:29;98995.50;;;16.85;40.20
75447;BME280;64024;55.820;37.574;2024-02-23T01:08:54;98994.94;;;16.83;40.01
75447;BME280;64024;55.820;37.574;2024-02-23T01:11:20;99009.94;;;16.79;40.17
75447;BME280;64024;55.820;37.574;2024-02-23T01:13:46;99002.41;;;16.76;40.48
75447;BME280;64024;55.820;37.574;2024-02-23T01:16:11;99004.75;;;16.72;40.60
75447;BME280;64024;55.820;37.574;2024-02-23T01:18:37;98997.19;;;16.69;40.44
75447;BME280;64024;55.820;37.574;2024-02-23T01:21:03;99001.19;;;16.66;40.22
75447;BME280;64024;55.820;37.574;2024-02-23T01:23:29;98989.09;;;16.64;40.54
75447;BME280;64024;55.820;37.574;2024-02-23T01:25:54;98993.09;;;16.61;40.50
75447;BME280;64024;55.820;37.574;2024-02-23T01:28:20;98995.47;;;16.58;40.60
75447;BME280;64024;55.820;37.574;2024-02-23T01:30:45;98993.31;;;16.55;40.57
75447;BME280;64024;55.820;37.574;2024-02-23T01:33:11;98997.56;;;16.51;40.63
75447;BME280;64024;55.820;37.574;2024-02-23T01:35:37;98995.13;;;16.49;40.62
75447;BME280;64024;55.820;37.574;2024-02-23T01:38:03;98999.13;;;16.47;40.61
75447;BME280;64024;55.820;37.574;2024-02-23T01:40:28;98999.63;;;16.44;40.69
75447;BME280;64024;55.820;37.574;2024-02-23T01:43:04;98998.25;;;16.41;40.58
75447;BME280;64024;55.820;37.574;2024-02-23T01:45:30;99004.94;;;16.38;40.67
75447;BME280;64024;55.820;37.574;2024-02-23T01:47:57;99009.72;;;16.36;40.83
75447;BME280;64024;55.820;37.574;2024-02-23T01:50:24;99009.41;;;16.33;40.86
75447;BME280;64024;55.820;37.574;2024-02-23T01:52:50;98989.31;;;16.30;40.92
75447;BME280;64024;55.820;37.574;2024-02-23T01:55:18;98992.56;;;16.37;40.91
75447;BME280;64024;55.820;37.574;2024-02-23T01:57:45;98996.28;;;16.31;40.69
75447;BME280;64024;55.820;37.574;2024-02-23T02:00:15;98987.38;;;16.26;40.89
75447;BME280;64024;55.820;37.574;2024-02-23T02:02:43;99002.09;;;16.23;41.02
75447;BME280;64024;55.820;37.574;2024-02-23T02:05:08;98995.09;;;16.22;40.88
75447;BME280;64024;55.820;37.574;2024-02-23T02:07:34;98998.59;;;16.23;40.97
75447;BME280;64024;55.820;37.574;2024-02-23T02:10:00;98991.91;;;16.25;40.98
75447;BME280;64024;55.820;37.574;2024-02-23T02:12:29;98979.38;;;16.31;41.04
75447;BME280;64024;55.820;37.574;2024-02-23T02:14:54;98985.59;;;16.36;41.27
75447;BME280;64024;55.820;37.574;2024-02-23T02:17:21;98977.38;;;16.43;41.11
75447;BME280;64024;55.820;37.574;2024-02-23T02:19:50;98987.66;;;16.51;41.25
75447;BME280;64024;55.820;37.574;2024-02-23T02:22:16;98978.88;;;16.61;40.94
75447;BME280;64024;55.820;37.574;2024-02-23T02:24:41;98982.72;;;16.70;40.71
75447;BME280;64024;55.820;37.574;2024-02-23T02:27:09;98983.09;;;16.79;40.92
75447;BME280;64024;55.820;37.574;2024-02-23T02:29:35;98986.41;;;16.91;40.81
75447;BME280;64024;55.820;37.574;2024-02-23T02:32:01;98990.81;;;17.02;40.71
75447;BME280;64024;55.820;37.574;2024-02-23T02:34:28;98987.16;;;17.13;40.50
75447;BME280;64024;55.820;37.574;2024-02-23T02:36:55;98993.16;;;17.26;40.65
75447;BME280;64024;55.820;37.574;2024-02-23T02:39:20;98983.78;;;17.33;40.29
75447;BME280;64024;55.820;37.574;2024-02-23T02:41:48;98990.03;;;17.39;40.30
75447;BME280;64024;55.820;37.574;2024-02-23T02:44:14;98987.38;;;17.44;40.15
75447;BME280;64024;55.820;37.574;2024-02-23T02:46:41;98985.78;;;17.48;40.03
75447;BME280;64024;55.820;37.574;2024-02-23T02:49:07;98986.06;;;17.52;39.89
75447;BME280;64024;55.820;37.574;2024-02-23T02:51:32;98991.75;;;17.55;39.86
75447;BME280;64024;55.820;37.574;2024-02-23T02:53:58;98994.44;;;17.55;39.96
75447;BME280;64024;55.820;37.574;2024-02-23T02:56:24;98992.03;;;17.59;39.85
75447;BME280;64024;55.820;37.574;2024-02-23T02:58:49;98986.38;;;17.60;39.99
75447;BME280;64024;55.820;37.574;2024-02-23T03:01:15;98976.72;;;17.59;40.18
75447;BME280;64024;55.820;37.574;2024-02-23T03:03:40;98973.22;;;17.59;40.16
75447;BME280;64024;55.820;37.574;2024-02-23T03:06:06;98978.03;;;17.57;40.34
75447;BME280;64024;55.820;37.574;2024-02-23T03:08:33;98970.25;;;17.55;40.24
75447;BME280;64024;55.820;37.574;2024-02-23T03:10:58;98999.25;;;17.53;40.53
75447;BME280;64024;55.820;37.574;2024-02-23T03:13:24;98980.97;;;17.50;40.68
75447;BME280;64024;55.820;37.574;2024-02-23T03:15:50;98995.72;;;17.48;40.65
75447;BME280;64024;55.820;37.574;2024-02-23T03:18:15;98999.72;;;17.45;40.74
75447;BME280;64024;55.820;37.574;2024-02-23T03:20:42;98998.38;;;17.43;40.92
75447;BME280;64024;55.820;37.574;2024-02-23T03:23:07;99007.75;;;17.40;40.96
75447;BME280;64024;55.820;37.574;2024-02-23T03:25:33;99005.56;;;17.37;41.28
75447;BME280;64024;55.820;37.574;2024-02-23T03:27:59;99011.47;;;17.34;41.20
75447;BME280;64024;55.820;37.574;2024-02-23T03:30:25;99016.28;;;17.32;41.42
75447;BME280;64024;55.820;37.574;2024-02-23T03:32:51;99010.63;;;17.28;41.35
75447;BME280;64024;55.820;37.574;2024-02-23T03:35:17;99016.53;;;17.25;41.48
75447;BME280;64024;55.820;37.574;2024-02-23T03:37:42;99017.03;;;17.22;41.38
75447;BME280;64024;55.820;37.574;2024-02-23T03:40:08;99008.94;;;17.17;41.46
75447;BME280;64024;55.820;37.574;2024-02-23T03:42:35;99012.94;;;17.14;41.25
75447;BME280;64024;55.820;37.574;2024-02-23T03:45:01;99015.31;;;17.11;41.22
75447;BME280;64024;55.820;37.574;2024-02-23T03:47:28;99016.91;;;17.07;40.93
75447;BME280;64024;55.820;37.574;2024-02-23T03:49:54;99017.41;;;17.04;41.13
75447;BME280;64024;55.820;37.574;2024-02-23T03:52:20;99020.63;;;17.01;41.14
75447;BME280;64024;55.820;37.574;2024-02-23T03:54:45;99008.50;;;16.98;41.09
75447;BME280;64024;55.820;37.574;2024-02-23T03:57:11;99019.75;;;16.95;40.96
75447;BME280;64024;55.820;37.574;2024-02-23T03:59:37;99026.44;;;16.93;40.98
75447;BME280;64024;55.820;37.574;2024-02-23T04:02:03;99021.84;;;16.88;41.03
75447;BME280;64024;55.820;37.574;2024-02-23T04:04:29;99033.88;;;16.85;40.71
75447;BME280;64024;55.820;37.574;2024-02-23T04:06:55;99033.59;;;16.82;40.94
75447;BME280;64024;55.820;37.574;2024-02-23T04:09:21;99016.94;;;16.80;40.95
75447;BME280;64024;55.820;37.574;2024-02-23T04:11:49;99025.50;;;16.77;40.78
75447;BME280;64024;55.820;37.574;2024-02-23T04:14:15;99042.91;;;16.74;40.84
75447;BME280;64024;55.820;37.574;2024-02-23T04:16:40;99040.69;;;16.71;40.81
75447;BME280;64024;55.820;37.574;2024-02-23T04:19:06;99042.00;;;16.69;40.69
75447;BME280;64024;55.820;37.574;2024-02-23T04:21:32;99036.06;;;16.66;40.89
75447;BME280;64024;55.820;37.574;2024-02-23T04:23:57;99047.34;;;16.63;40.70
75447;BME280;64024;55.820;37.574;2024-02-23T04:26:23;99022.59;;;16.61;40.82
75447;BME280;64024;55.820;37.574;2024-02-23T04:28:49;99057.97;;;16.58;40.85
75447;BME280;64024;55.820;37.574;2024-02-23T04:31:14;99043.22;;;16.56;40.87
75447;BME280;64024;55.820;37.574;2024-02-23T04:33:40;99040.78;;;16.54;40.84
75447;BME280;64024;55.820;37.574;2024-02-23T04:36:06;99039.41;;;16.52;40.83
75447;BME280;64024;55.820;37.574;2024-02-23T04:38:32;99043.41;;;16.49;40.92
75447;BME280;64024;55.820;37.574;2024-02-23T04:41:03;99047.41;;;16.47;41.24
75447;BME280;64024;55.820;37.574;2024-02-23T04:43:29;99052.22;;;16.45;41.03
75447;BME280;64024;55.820;37.574;2024-02-23T04:45:55;99044.41;;;16.43;41.34
75447;BME280;64024;55.820;37.574;2024-02-23T04:48:20;99055.38;;;16.41;41.21
75447;BME280;64024;55.820;37.574;2024-02-23T04:50:46;99070.13;;;16.39;41.27
75447;BME280;64024;55.820;37.574;2024-02-23T04:53:11;99061.50;;;16.37;41.33
75447;BME280;64024;55.820;37.574;2024-02-23T04:55:37;99055.59;;;16.35;41.16
75447;BME280;64024;55.820;37.574;2024-02-23T04:58:03;99064.66;;;16.34;41.14
75447;BME280;64024;55.820;37.574;2024-02-23T05:00:28;99047.53;;;16.35;41.41
75447;BME280;64024;55.820;37.574;2024-02-23T05:03:01;99045.19;;;16.38;41.42
75447;BME280;64024;55.820;37.574;2024-02-23T05:05:29;99062.13;;;16.44;41.50
75447;BME280;64024;55.820;37.574;2024-02-23T05:07:55;99055.75;;;16.50;41.49
75447;BME280;64024;55.820;37.574;2024-02-23T05:10:21;99073.28;;;16.58;41.69
75447;BME280;64024;55.820;37.574;2024-02-23T05:12:48;99067.47;;;16.66;41.68
75447;BME280;64024;55.820;37.574;2024-02-23T05:15:14;99065.16;;;16.75;41.64
75447;BME280;64024;55.820;37.574;2024-02-23T05:17:39;99071.47;;;16.85;41.40
75447;BME280;64024;55.820;37.574;2024-02-23T05:20:07;99082.28;;;16.96;41.31
75447;BME280;64024;55.820;37.574;2024-02-23T05:22:34;99068.72;;;17.07;41.21
75447;BME280;64024;55.820;37.574;2024-02-23T05:24:59;99087.09;;;17.21;41.20
75447;BME280;64024;55.820;37.574;2024-02-23T05:27:25;99071.09;;;17.31;41.06
75447;BME280;64024;55.820;37.574;2024-02-23T05:29:52;99077.59;;;17.40;40.87
75447;BME280;64024;55.820;37.574;2024-02-23T05:32:18;99065.00;;;17.46;40.57
75447;BME280;64024;55.820;37.574;2024-02-23T05:34:44;99074.75;;;17.52;40.67
75447;BME280;64024;55.820;37.574;2024-02-23T05:37:10;99073.16;;;17.56;40.49
75447;BME280;64024;55.820;37.574;2024-02-23T05:39:36;99061.09;;;17.58;40.29
75447;BME280;64024;55.820;37.574;2024-02-23T05:42:03;99077.75;;;17.60;40.32
75447;BME280;64024;55.820;37.574;2024-02-23T05:44:29;99080.75;;;17.64;40.37
75447;BME280;64024;55.820;37.574;2024-02-23T05:46:55;99091.22;;;17.65;40.21
75447;BME280;64024;55.820;37.574;2024-02-23T05:49:20;99094.72;;;17.66;40.29
75447;BME280;64024;55.820;37.574;2024-02-23T05:51:46;99099.28;;;17.65;40.10
75447;BME280;64024;55.820;37.574;2024-02-23T05:54:12;99082.63;;;17.63;40.09
75447;BME280;64024;55.820;37.574;2024-02-23T05:56:37;99100.63;;;17.63;39.99
75447;BME280;64024;55.820;37.574;2024-02-23T05:59:03;99089.06;;;17.62;40.04
75447;BME280;64024;55.820;37.574;2024-02-23T06:01:28;99098.44;;;17.60;39.91
75447;BME280;64024;55.820;37.574;2024-02-23T06:03:54;99093.34;;;17.58;40.05
75447;BME280;64024;55.820;37.574;2024-02-23T06:06:20;99089.28;;;17.56;39.99
75447;BME280;64024;55.820;37.574;2024-02-23T06:08:46;99086.03;;;17.54;40.25
75447;BME280;64024;55.820;37.574;2024-02-23T06:11:12;99087.59;;;17.50;40.06
75447;BME280;64024;55.820;37.574;2024-02-23T06:13:37;99088.16;;;17.47;40.05
75447;BME280;64024;55.820;37.574;2024-02-23T06:16:04;99090.53;;;17.43;40.06
75447;BME280;64024;55.820;37.574;2024-02-23T06:18:30;99078.41;;;17.40;40.26
75447;BME280;64024;55.820;37.574;2024-02-23T06:20:56;99086.97;;;17.37;39.97
75447;BME280;64024;55.820;37.574;2024-02-23T06:23:21;99088.31;;;17.35;40.18
75447;BME280;64024;55.820;37.574;2024-02-23T06:25:47;99088.00;;;17.31;40.15
75447;BME280;64024;55.820;37.574;2024-02-23T06:28:13;99087.69;;;17.28;40.08
75447;BME280;64024;55.820;37.574;2024-02-23T06:30:57;99099.78;;;17.25;40.07
75447;BME280;64024;55.820;37.574;2024-02-23T06:33:23;99107.78;;;17.20;40.08
75447;BME280;64024;55.820;37.574;2024-02-23T06:35:48;99094.31;;;17.15;40.14
75447;BME280;64024;55.820;37.574;2024-02-23T06:38:14;99093.19;;;17.11;40.16
75447;BME280;64024;55.820;37.574;2024-02-23T06:40:40;99100.69;;;17.09;40.00
75447;BME280;64024;55.820;37.574;2024-02-23T06:43:06;99093.16;;;17.06;40.00
75447;BME280;64024;55.820;37.574;2024-02-23T06:45:31;99108.94;;;17.02;40.10
75447;BME280;64024;55.820;37.574;2024-02-23T06:47:57;99108.38;;;17.00;40.21
75447;BME280;64024;55.820;37.574;2024-02-23T06:50:23;99097.34;;;16.97;40.02
75447;BME280;64024;55.820;37.574;2024-02-23T06:52:48;99094.69;;;16.97;40.21
75447;BME280;64024;55.820;37.574;2024-02-23T06:55:15;99099.25;;;16.96;40.29
75447;BME280;64024;55.820;37.574;2024-02-23T06:57:43;99100.03;;;16.97;40.34
75447;BME280;64024;55.820;37.574;2024-02-23T07:00:09;99098.16;;;16.97;40.24
75447;BME280;64024;55.820;37.574;2024-02-23T07:02:35;99102.47;;;16.98;40.44
75447;BME280;64024;55.820;37.574;2024-02-23T07:05:03;99105.16;;;16.98;40.65
75447;BME280;64024;55.820;37.574;2024-02-23T07:07:32;99107.28;;;16.96;40.50
75447;BME280;64024;55.820;37.574;2024-02-23T07:09:59;99107.53;;;16.95;40.70
75447;BME280;64024;55.820;37.574;2024-02-23T07:12:25;99116.91;;;16.92;40.54
75447;BME280;64024;55.820;37.574;2024-02-23T07:14:57;99112.59;;;16.91;40.47
75447;BME280;64024;55.820;37.574;2024-02-23T07:17:23;99128.94;;;16.89;40.50
75447;BME280;64024;55.820;37.574;2024-02-23T07:19:49;99116.03;;;16.86;40.55
75447;BME280;64024;55.820;37.574;2024-02-23T07:25:01;99113.09;;;16.88;40.63
75447;BME280;64024;55.820;37.574;2024-02-23T07:27:29;99115.34;;;16.96;40.57
75447;BME280;64024;55.820;37.574;2024-02-23T07:29:55;99116.91;;;16.92;40.55
75447;BME280;64024;55.820;37.574;2024-02-23T07:32:21;99118.47;;;16.88;40.46
75447;BME280;64024;55.820;37.574;2024-02-23T07:34:46;99118.97;;;16.85;40.66
75447;BME280;64024;55.820;37.574;2024-02-23T07:37:13;99118.41;;;16.83;40.69
75447;BME280;64024;55.820;37.574;2024-02-23T07:39:39;99116.78;;;16.82;40.95
75447;BME280;64024;55.820;37.574;2024-02-23T07:42:05;99117.03;;;16.80;40.66
75447;BME280;64024;55.820;37.574;2024-02-23T07:44:31;99114.59;;;16.79;40.71
75447;BME280;64024;55.820;37.574;2024-02-23T07:46:57;99121.84;;;16.78;40.97
75447;BME280;64024;55.820;37.574;2024-02-23T07:49:25;99113.25;;;16.76;40.79
75447;BME280;64024;55.820;37.574;2024-02-23T07:51:52;99119.66;;;16.75;40.85
75447;BME280;64024;55.820;37.574;2024-02-23T07:54:18;99126.91;;;16.75;40.95
75447;BME280;64024;55.820;37.574;2024-02-23T07:56:43;99127.69;;;16.75;40.95
75447;BME280;64024;55.820;37.574;2024-02-23T07:59:09;99126.66;;;16.76;40.90
75447;BME280;64024;55.820;37.574;2024-02-23T08:01:35;99115.66;;;16.78;41.29
75447;BME280;64024;55.820;37.574;2024-02-23T08:04:19;99123.22;;;16.81;41.68
75447;BME280;64024;55.820;37.574;2024-02-23T08:06:45;99129.13;;;16.83;41.61
75447;BME280;64024;55.820;37.574;2024-02-23T08:09:11;99130.78;;;16.84;41.72
75447;BME280;64024;55.820;37.574;2024-02-23T08:11:37;99140.19;;;16.86;41.65
75447;BME280;64024;55.820;37.574;2024-02-23T08:14:02;99123.00;;;16.87;41.52
75447;BME280;64024;55.820;37.574;2024-02-23T08:16:48;99136.19;;;16.89;41.46
75447;BME280;64024;55.820;37.574;2024-02-23T08:19:15;99133.50;;;16.89;41.40
75447;BME280;64024;55.820;37.574;2024-02-23T08:21:40;99132.69;;;16.88;41.31
75447;BME280;64024;55.820;37.574;2024-02-23T08:24:07;99137.28;;;16.88;41.35
75447;BME280;64024;55.820;37.574;2024-02-23T08:26:33;99140.75;;;16.88;41.34
75447;BME280;64024;55.820;37.574;2024-02-23T08:28:59;99148.00;;;16.88;41.28
75447;BME280;64024;55.820;37.574;2024-02-23T08:31:24;99145.31;;;16.88;41.27
75447;BME280;64024;55.820;37.574;2024-02-23T08:33:50;99139.69;;;16.89;41.36
75447;BME280;64024;55.820;37.574;2024-02-23T08:36:16;99138.88;;;16.89;41.28
75447;BME280;64024;55.820;37.574;2024-02-23T08:38:41;99144.00;;;16.90;41.22
75447;BME280;64024;55.820;37.574;2024-02-23T08:41:07;99131.63;;;16.89;41.33
75447;BME280;64024;55.820;37.574;2024-02-23T08:43:34;99147.75;;;16.89;40.98
75447;BME280;64024;55.820;37.574;2024-02-23T08:45:59;99150.16;;;16.91;41.38
75447;BME280;64024;55.820;37.574;2024-02-23T08:48:25;99154.72;;;16.90;41.27
75447;BME280;64024;55.820;37.574;2024-02-23T08:50:51;99159.28;;;16.90;41.39
75447;BME280;64024;55.820;37.574;2024-02-23T08:53:16;99159.28;;;16.90;41.35
75447;BME280;64024;55.820;37.574;2024-02-23T08:55:42;99162.78;;;16.90;41.24
75447;BME280;64024;55.820;37.574;2024-02-23T08:58:08;99156.59;;;16.90;41.23
75447;BME280;64024;55.820;37.574;2024-02-23T09:00:35;99163.84;;;16.89;41.10
75447;BME280;64024;55.820;37.574;2024-02-23T09:03:02;99162.34;;;16.99;40.87
75447;BME280;64024;55.820;37.574;2024-02-23T09:05:28;99168.47;;;16.94;41.13
75447;BME280;64024;55.820;37.574;2024-02-23T09:07:54;99160.09;;;16.90;41.05
75447;BME280;64024;55.820;37.574;2024-02-23T09:10:19;99165.97;;;16.87;41.00
75447;BME280;64024;55.820;37.574;2024-02-23T09:12:45;99164.34;;;16.86;41.13
75447;BME280;64024;55.820;37.574;2024-02-23T09:15:11;99173.47;;;16.85;41.04
75447;BME280;64024;55.820;37.574;2024-02-23T09:17:36;99171.84;;;16.84;41.22
75447;BME280;64024;55.820;37.574;2024-02-23T09:20:02;99169.16;;;16.84;41.21
75447;BME280;64024;55.820;37.574;2024-02-23T09:22:28;99166.72;;;16.83;41.18
75447;BME280;64024;55.820;37.574;2024-02-23T09:24:54;99159.47;;;16.83;41.05
75447;BME280;64024;55.820;37.574;2024-02-23T09:27:21;99172.06;;;16.83;41.23
75447;BME280;64024;55.820;37.574;2024-02-23T09:29:47;99169.66;;;16.81;41.15
75447;BME280;64024;55.820;37.574;2024-02-23T09:32:13;99176.63;;;16.82;41.22
75447;BME280;64024;55.820;37.574;2024-02-23T09:34:38;99177.44;;;16.83;41.18
75447;BME280;64024;55.820;37.574;2024-02-23T09:37:04;99173.97;;;16.82;41.26
75447;BME280;64024;55.820;37.574;2024-02-23T09:39:29;99180.94;;;16.83;40.93
75447;BME280;64024;55.820;37.574;2024-02-23T09:41:56;99180.94;;;16.83;41.17
75447;BME280;64024;55.820;37.574;2024-02-23T09:44:28;99173.97;;;16.82;41.01
75447;BME280;64024;55.820;37.574;2024-02-23T09:46:58;99177.44;;;16.83;41.13
75447;BME280;64024;55.820;37.574;2024-02-23T09:49:24;99172.06;;;16.83;41.21
75447;BME280;64024;55.820;37.574;2024-02-23T09:51:50;99169.41;;;16.83;41.32
75447;BME280;64024;55.820;37.574;2024-02-23T09:54:17;99173.72;;;16.84;41.10
75447;BME280;64024;55.820;37.574;2024-02-23T09:56:43;99179.91;;;16.84;41.20
75447;BME280;64024;55.820;37.574;2024-02-23T09:59:09;99169.97;;;16.85;41.18
75447;BME280;64024;55.820;37.574;2024-02-23T10:01:35;99178.03;;;16.85;41.23
75447;BME280;64024;55.820;37.574;2024-02-23T10:04:02;99185.00;;;16.86;41.22
75447;BME280;64024;55.820;37.574;2024-02-23T10:06:32;99179.63;;;16.86;41.14
75447;BME280;64024;55.820;37.574;2024-02-23T10:08:58;99183.13;;;16.86;41.21
75447;BME280;64024;55.820;37.574;2024-02-23T10:11:24;99184.75;;;16.87;41.27
75447;BME280;64024;55.820;37.574;2024-02-23T10:13:51;99183.72;;;16.88;41.23
75447;BME280;64024;55.820;37.574;2024-02-23T10:16:20;99177.28;;;16.89;41.13
75447;BME280;64024;55.820;37.574;2024-02-23T10:18:49;99182.63;;;16.89;41.20
75447;BME280;64024;55.820;37.574;2024-02-23T10:21:16;99184.25;;;16.90;41.10
75447;BME280;64024;55.820;37.574;2024-02-23T10:23:43;99188.81;;;16.90;41.09
75447;BME280;64024;55.820;37.574;2024-02-23T10:26:10;99187.75;;;16.91;41.26
75447;BME280;64024;55.820;37.574;2024-02-23T10:28:38;99198.25;;;16.93;41.17
75447;BME280;64024;55.820;37.574;2024-02-23T10:31:05;99188.56;;;16.92;41.03
75447;BME280;64024;55.820;37.574;2024-02-23T10:33:31;99184.03;;;16.92;41.02
75447;BME280;64024;55.820;37.574;2024-02-23T10:35:57;99193.69;;;16.93;41.07
75447;BME280;64024;55.820;37.574;2024-02-23T10:38:23;99183.75;;;16.94;41.19
75447;BME280;64024;55.820;37.574;2024-02-23T10:40:50;99181.06;;;16.94;41.26
75447;BME280;64024;55.820;37.574;2024-02-23T10:43:19;99186.44;;;16.94;41.06
75447;BME280;64024;55.820;37.574;2024-02-23T10:45:48;99188.06;;;16.95;40.98
75447;BME280;64024;55.820;37.574;2024-02-23T10:48:15;99196.13;;;16.95;41.00
75447;BME280;64024;55.820;37.574;2024-02-23T10:50:41;99196.13;;;16.95;41.10
75447;BME280;64024;55.820;37.574;2024-02-23T10:53:10;99204.97;;;16.95;41.02
75447;BME280;64024;55.820;37.574;2024-02-23T10:55:37;99209.31;;;16.96;41.02
75447;BME280;64024;55.820;37.574;2024-02-23T10:58:25;99205.56;;;16.97;41.12
75447;BME280;64024;55.820;37.574;2024-02-23T11:01:09;99214.97;;;17.00;41.21
75447;BME280;64024;55.820;37.574;2024-02-23T11:03:54;99202.59;;;16.99;41.19
75447;BME280;64024;55.820;37.574;2024-02-23T11:06:20;99206.91;;;17.00;41.30
75447;BME280;64024;55.820;37.574;2024-02-23T11:08:50;99210.66;;;16.99;41.52
75447;BME280;64024;55.820;37.574;2024-02-23T11:11:16;99211.47;;;16.99;41.59
75447;BME280;64024;55.820;37.574;2024-02-23T11:13:45;99211.47;;;16.99;41.55
75447;BME280;64024;55.820;37.574;2024-02-23T11:16:21;99210.41;;;17.00;41.64
75447;BME280;64024;55.820;37.574;2024-02-23T11:18:48;99213.91;;;17.01;41.73
75447;BME280;64024;55.820;37.574;2024-02-23T11:21:14;99221.97;;;17.01;41.63
75447;BME280;64024;55.820;37.574;2024-02-23T11:23:52;99220.09;;;17.01;41.98
75447;BME280;64024;55.820;37.574;2024-02-23T11:26:18;99223.91;;;17.05;41.91
75447;BME280;64024;55.820;37.574;2024-02-23T11:28:48;99225.53;;;17.06;42.11
75447;BME280;64024;55.820;37.574;2024-02-23T11:31:15;99223.66;;;17.07;41.88
75447;BME280;64024;55.820;37.574;2024-02-23T11:33:54;99228.19;;;17.06;42.08
75447;BME280;64024;55.820;37.574;2024-02-23T11:36:30;99226.06;;;17.08;41.88
75447;BME280;64024;55.820;37.574;2024-02-23T11:38:58;99220.97;;;17.07;41.83
75447;BME280;64024;55.820;37.574;2024-02-23T11:41:25;99220.97;;;17.07;42.03
75447;BME280;64024;55.820;37.574;2024-02-23T11:43:52;99202.97;;;17.07;42.14
75447;BME280;64024;55.820;37.574;2024-02-23T11:46:19;99213.72;;;17.07;42.05
75447;BME280;64024;55.820;37.574;2024-02-23T11:48:45;99215.59;;;17.07;42.05
75447;BME280;64024;55.820;37.574;2024-02-23T11:51:14;99212.91;;;17.07;41.94
75447;BME280;64024;55.820;37.574;2024-02-23T11:53:40;99221.31;;;17.15;42.30
75447;BME280;64024;55.820;37.574;2024-02-23T11:56:06;99221.00;;;17.12;42.02
75447;BME280;64024;55.820;37.574;2024-02-23T11:58:34;99226.91;;;17.09;42.33
75447;BME280;64024;55.820;37.574;2024-02-23T12:01:01;99220.16;;;17.06;42.24
75447;BME280;64024;55.820;37.574;2024-02-23T12:03:31;99214.78;;;17.06;42.34
75447;BME280;64024;55.820;37.574;2024-02-23T12:05:57;99220.97;;;17.07;42.34
75447;BME280;64024;55.820;37.574;2024-02-23T12:08:30;99213.72;;;17.07;42.15
75447;BME280;64024;55.820;37.574;2024-02-23T12:10:57;99226.91;;;17.09;42.51
75447;BME280;64024;55.820;37.574;2024-02-23T12:13:26;99228.75;;;17.08;42.54
75447;BME280;64024;55.820;37.574;2024-02-23T12:15:52;99216.97;;;17.09;42.21
75447;BME280;64024;55.820;37.574;2024-02-23T12:18:21;99234.97;;;17.09;42.56
75447;BME280;64024;55.820;37.574;2024-02-23T12:21:04;99225.56;;;17.11;42.48
75447;BME280;64024;55.820;37.574;2024-02-23T12:23:48;99234.44;;;17.12;42.55
75447;BME280;64024;55.820;37.574;2024-02-23T12:26:16;99230.94;;;17.11;42.52
75447;BME280;64024;55.820;37.574;2024-02-23T12:28:43;99241.69;;;17.11;42.45
75447;BME280;64024;55.820;37.574;2024-02-23T12:31:08;99234.44;;;17.12;42.39
75447;BME280;64024;55.820;37.574;2024-02-23T12:33:36;99239.00;;;17.11;42.52
75447;BME280;64024;55.820;37.574;2024-02-23T12:36:04;99228.25;;;17.11;42.45
75447;BME280;64024;55.820;37.574;2024-02-23T12:38:30;99244.94;;;17.13;42.43
75447;BME280;64024;55.820;37.574;2024-02-23T12:40:56;99234.44;;;17.12;42.53
75447;BME280;64024;55.820;37.574;2024-02-23T12:43:22;99229.88;;;17.12;42.50
75447;BME280;64024;55.820;37.574;2024-02-23T12:45:52;99234.22;;;17.13;42.38
75447;BME280;64024;55.820;37.574;2024-02-23T12:48:18;99232.56;;;17.12;42.50
75447;BME280;64024;55.820;37.574;2024-02-23T12:50:45;99237.94;;;17.12;42.82